Time;durP1;ratioP1;P1;durP2;ratioP2;P2;SDS_P1;SDS_P2;PMS_P1;PMS_P2;Temp;Humidity;BMP_temperature;BMP_pressure;BME280_temperature;BME280_humidity;BME280_pressure;Samples;Min_cycle;Max_cycle;Signal;HPM_P1;HPM_P2
2023/06/05 00:02:02;;;;;;;1.83;1.30;;;16.60;64.30;;;;;;5030126;28;20257;-64
2023/06/05 00:04:29;;;;;;;2.40;1.20;;;16.50;64.30;;;;;;5009880;28;20230;-65
2023/06/05 00:06:57;;;;;;;1.60;1.33;;;16.50;65.50;;;;;;5030221;28;20845;-65
2023/06/05 00:09:24;;;;;;;1.87;1.40;;;16.40;64.60;;;;;;5028809;28;20222;-64
2023/06/05 00:11:52;;;;;;;1.40;1.30;;;16.40;64.60;;;;;;5029882;28;20615;-64
2023/06/05 00:14:19;;;;;;;1.27;1.17;;;16.40;64.50;;;;;;5028088;28;20199;-65
2023/06/05 00:16:47;;;;;;;1.73;1.37;;;16.40;64.60;;;;;;5029701;28;20284;-65
2023/06/05 00:19:14;;;;;;;1.13;1.13;;;16.50;64.60;;;;;;5027919;28;20663;-65
2023/06/05 00:21:41;;;;;;;1.17;1.17;;;16.50;64.60;;;;;;5029640;28;20687;-65
2023/06/05 00:24:08;;;;;;;1.63;1.10;;;16.50;64.60;;;;;;5029433;28;20687;-65
2023/06/05 00:26:35;;;;;;;1.57;1.37;;;16.50;64.50;;;;;;5029867;28;20278;-65
2023/06/05 00:29:03;;;;;;;1.30;1.20;;;16.50;64.50;;;;;;5027854;28;20195;-65
2023/06/05 00:31:32;;;;;;;1.10;1.00;;;16.50;64.50;;;;;;5029634;28;20708;-66
2023/06/05 00:33:59;;;;;;;1.10;1.10;;;16.50;64.50;;;;;;5028115;28;20317;-65
2023/06/05 00:36:27;;;;;;;3.20;1.23;;;16.40;64.40;;;;;;5029831;28;20687;-65
2023/06/05 00:38:55;;;;;;;1.40;1.30;;;16.30;64.50;;;;;;5009228;28;20624;-65
2023/06/05 00:41:22;;;;;;;1.10;1.10;;;16.30;64.60;;;;;;5012321;28;20210;-65
2023/06/05 00:43:49;;;;;;;1.50;1.40;;;16.30;64.70;;;;;;5024773;28;20206;-65
2023/06/05 00:46:18;;;;;;;1.17;1.17;;;16.20;64.60;;;;;;5029753;28;20202;-65
2023/06/05 00:48:48;;;;;;;1.40;1.30;;;16.20;64.60;;;;;;5028081;28;20193;-66
2023/06/05 00:51:15;;;;;;;1.53;1.40;;;16.20;64.50;;;;;;5028840;28;20194;-66
2023/06/05 00:53:45;;;;;;;1.40;0.87;;;16.20;64.50;;;;;;5027293;28;20209;-64
2023/06/05 00:56:12;;;;;;;0.97;0.97;;;16.20;64.60;;;;;;5029563;28;20272;-64
2023/06/05 00:58:40;;;;;;;2.93;1.20;;;16.10;64.60;;;;;;5000718;28;20285;-66
2023/06/05 01:03:50;;;;;;;1.80;1.40;;;16.20;64.70;;;;;;4383885;23;20258;-66
2023/06/05 01:06:19;;;;;;;2.03;1.00;;;16.20;64.70;;;;;;4968267;28;20198;-68
2023/06/05 01:08:48;;;;;;;1.10;1.00;;;16.10;64.60;;;;;;4989040;28;20271;-66
2023/06/05 01:11:20;;;;;;;1.30;1.20;;;16.20;64.70;;;;;;4984524;28;20578;-66
2023/06/05 01:13:55;;;;;;;1.30;1.20;;;16.10;64.60;;;;;;4976867;28;20282;-67
2023/06/05 01:16:30;;;;;;;1.10;1.10;;;16.00;64.70;;;;;;4975607;28;20207;-66
2023/06/05 01:19:02;;;;;;;1.23;1.13;;;16.00;64.80;;;;;;4974001;28;20291;-68
2023/06/05 01:21:30;;;;;;;1.17;1.07;;;15.90;64.90;;;;;;4959625;28;20203;-67
2023/06/05 01:23:59;;;;;;;0.80;0.80;;;16.00;65.00;;;;;;4971169;28;20617;-66
2023/06/05 01:26:37;;;;;;;1.40;1.30;;;16.00;65.00;;;;;;4967437;28;20262;-66
2023/06/05 01:29:09;;;;;;;1.30;1.20;;;16.00;64.90;;;;;;4982124;28;20201;-66
2023/06/05 01:31:39;;;;;;;3.30;1.30;;;16.00;64.90;;;;;;4965861;28;20684;-66
2023/06/05 01:34:13;;;;;;;1.30;1.20;;;16.00;65.80;;;;;;4989708;28;20215;-66
2023/06/05 01:36:41;;;;;;;1.10;1.10;;;16.00;65.10;;;;;;4987789;28;20208;-65
2023/06/05 01:39:14;;;;;;;1.30;1.20;;;16.00;65.20;;;;;;4976628;28;20267;-69
2023/06/05 01:41:42;;;;;;;1.10;1.00;;;16.00;65.20;;;;;;4986952;28;20600;-67
2023/06/05 01:44:12;;;;;;;1.10;1.00;;;16.00;65.20;;;;;;4982742;28;20204;-67
2023/06/05 01:46:40;;;;;;;1.13;1.10;;;16.10;65.40;;;;;;4980159;28;20299;-66
2023/06/05 01:49:08;;;;;;;1.20;1.10;;;16.10;65.30;;;;;;4972064;28;20211;-67
2023/06/05 01:51:36;;;;;;;1.00;1.00;;;16.10;65.40;;;;;;4973371;28;20234;-67
2023/06/05 01:54:05;;;;;;;1.50;1.40;;;16.10;65.40;;;;;;4973470;28;20203;-67
2023/06/05 01:56:36;;;;;;;1.00;1.00;;;16.10;74.50;;;;;;4972075;28;20666;-67
2023/06/05 01:59:06;;;;;;;1.20;1.10;;;16.00;65.40;;;;;;4963093;28;20224;-67
2023/06/05 02:01:34;;;;;;;1.40;1.30;;;16.00;66.30;;;;;;4972991;28;20207;-65
2023/06/05 02:04:04;;;;;;;1.07;1.00;;;15.90;65.50;;;;;;4981548;28;20232;-67
2023/06/05 02:06:41;;;;;;;1.43;1.27;;;15.90;65.50;;;;;;4975818;28;20226;-67
2023/06/05 02:09:10;;;;;;;1.30;1.17;;;15.90;65.50;;;;;;4970895;28;20207;-67
2023/06/05 02:11:39;;;;;;;1.27;1.10;;;15.80;65.60;;;;;;4989175;28;20278;-67
2023/06/05 02:14:07;;;;;;;1.40;1.30;;;15.80;65.60;;;;;;4977447;28;20617;-67
2023/06/05 02:16:36;;;;;;;1.20;1.10;;;15.70;65.60;;;;;;4965742;28;20518;-66
2023/06/05 02:19:04;;;;;;;1.30;1.20;;;15.70;65.60;;;;;;4970105;28;20212;-67
2023/06/05 02:21:33;;;;;;;1.07;1.03;;;15.70;65.70;;;;;;4969044;28;20231;-67
2023/06/05 02:24:00;;;;;;;1.80;1.30;;;15.80;65.70;;;;;;4989894;28;20224;-66
2023/06/05 02:26:27;;;;;;;1.60;1.40;;;15.80;65.70;;;;;;4968143;28;20224;-66
2023/06/05 02:28:58;;;;;;;2.03;1.20;;;15.80;65.60;;;;;;4974447;28;20204;-66
2023/06/05 02:31:28;;;;;;;2.87;1.40;;;15.80;65.70;;;;;;4964928;28;20200;-66
2023/06/05 02:33:56;;;;;;;2.97;1.30;;;15.80;65.70;;;;;;4972257;28;20517;-67
2023/06/05 02:36:24;;;;;;;1.37;1.27;;;15.70;65.50;;;;;;4982523;28;20330;-67
2023/06/05 02:38:53;;;;;;;2.43;1.40;;;15.70;65.50;;;;;;4963575;28;20218;-67
2023/06/05 02:41:21;;;;;;;1.50;1.40;;;15.70;65.60;;;;;;4964525;28;20201;-67
2023/06/05 02:43:49;;;;;;;1.10;1.10;;;15.70;65.60;;;;;;4961992;28;20357;-66
2023/06/05 02:46:17;;;;;;;1.00;1.00;;;15.70;65.60;;;;;;4977419;28;20570;-66
2023/06/05 02:48:46;;;;;;;1.20;1.20;;;15.60;65.50;;;;;;4976455;28;20658;-67
2023/06/05 02:51:14;;;;;;;1.13;0.80;;;15.60;65.60;;;;;;4968984;28;20386;-66
2023/06/05 02:53:44;;;;;;;1.23;1.13;;;15.60;65.70;;;;;;4971050;28;20250;-67
2023/06/05 02:56:12;;;;;;;2.53;1.20;;;15.60;65.60;;;;;;4970883;28;20216;-66
2023/06/05 02:58:43;;;;;;;1.20;1.20;;;15.60;65.60;;;;;;4969410;28;20211;-66
2023/06/05 03:01:11;;;;;;;1.70;1.27;;;15.60;65.60;;;;;;4985516;28;20298;-65
2023/06/05 03:03:45;;;;;;;1.30;1.20;;;15.60;65.60;;;;;;4967830;28;20243;-67
2023/06/05 03:06:12;;;;;;;1.07;1.03;;;15.60;66.40;;;;;;4971412;28;20204;-66
2023/06/05 03:08:45;;;;;;;1.23;1.17;;;15.60;65.60;;;;;;4984936;28;20667;-66
2023/06/05 03:11:16;;;;;;;1.40;1.27;;;15.70;65.60;;;;;;4982135;28;20193;-66
2023/06/05 03:13:44;;;;;;;1.27;1.20;;;15.70;65.50;;;;;;4971526;28;20307;-66
2023/06/05 03:16:12;;;;;;;1.30;1.20;;;15.70;65.40;;;;;;4958218;28;20228;-67
2023/06/05 03:18:47;;;;;;;1.40;1.30;;;15.70;65.40;;;;;;4970801;28;20219;-67
2023/06/05 03:21:14;;;;;;;1.63;1.53;;;15.70;65.50;;;;;;4970975;28;20209;-67
2023/06/05 03:23:42;;;;;;;1.87;1.53;;;15.60;66.20;;;;;;4966387;28;20191;-66
2023/06/05 03:26:10;;;;;;;1.53;1.20;;;15.60;65.50;;;;;;4973559;28;20211;-67
2023/06/05 03:28:37;;;;;;;0.97;0.97;;;15.70;65.50;;;;;;4988106;28;20566;-66
2023/06/05 03:31:10;;;;;;;1.93;1.17;;;15.70;65.50;;;;;;4969099;28;20200;-67
2023/06/05 03:33:40;;;;;;;1.10;1.10;;;15.70;65.50;;;;;;4973850;28;20222;-66
2023/06/05 03:36:09;;;;;;;1.20;1.10;;;15.70;65.60;;;;;;4970655;28;20210;-67
2023/06/05 03:38:36;;;;;;;1.23;1.13;;;15.70;65.60;;;;;;4977009;28;20287;-65
2023/06/05 03:41:03;;;;;;;1.20;1.10;;;15.70;65.70;;;;;;4988815;28;20199;-66
2023/06/05 03:43:30;;;;;;;1.00;1.00;;;15.70;65.60;;;;;;4985037;28;20199;-67
2023/06/05 03:45:58;;;;;;;0.90;0.90;;;15.70;65.60;;;;;;4971136;28;20582;-67
2023/06/05 03:48:26;;;;;;;1.20;1.20;;;15.70;65.70;;;;;;4968661;28;20214;-66
2023/06/05 03:50:55;;;;;;;1.33;1.23;;;15.80;65.80;;;;;;4982752;28;20541;-66
2023/06/05 03:53:27;;;;;;;1.13;1.07;;;15.80;65.80;;;;;;4968391;28;20306;-66
2023/06/05 03:55:54;;;;;;;1.40;1.30;;;15.80;65.80;;;;;;4990125;28;20677;-67
2023/06/05 03:58:26;;;;;;;1.17;0.97;;;15.80;65.80;;;;;;4970781;28;20199;-66
2023/06/05 04:00:55;;;;;;;1.30;1.20;;;15.80;65.90;;;;;;4968320;28;20207;-66
2023/06/05 04:03:22;;;;;;;1.20;1.20;;;15.90;65.90;;;;;;4968476;28;20243;-67
2023/06/05 04:05:53;;;;;;;1.27;1.13;;;15.90;66.00;;;;;;4970350;28;20270;-66
2023/06/05 04:08:20;;;;;;;1.03;1.03;;;16.00;66.10;;;;;;4988548;28;20621;-66
2023/06/05 04:10:49;;;;;;;1.20;1.10;;;16.00;66.20;;;;;;4988249;28;20202;-67
2023/06/05 04:13:16;;;;;;;1.20;1.10;;;16.00;67.10;;;;;;4971424;28;20188;-66
2023/06/05 04:15:45;;;;;;;1.10;1.00;;;16.00;66.50;;;;;;4979349;28;20215;-67
2023/06/05 04:18:13;;;;;;;1.67;1.17;;;16.00;66.50;;;;;;4962333;28;20218;-67
2023/06/05 04:20:40;;;;;;;1.30;1.30;;;16.10;66.50;;;;;;4969505;28;20192;-67
2023/06/05 04:23:09;;;;;;;1.37;1.20;;;16.20;66.60;;;;;;4969449;28;20200;-67
2023/06/05 04:25:45;;;;;;;1.17;1.17;;;16.20;66.60;;;;;;4965910;28;20207;-66
2023/06/05 04:28:15;;;;;;;2.43;1.17;;;16.30;66.60;;;;;;4967315;28;20211;-67
2023/06/05 04:30:42;;;;;;;1.70;1.27;;;16.30;66.60;;;;;;4970397;28;20625;-67
2023/06/05 04:33:09;;;;;;;1.63;1.03;;;16.30;66.60;;;;;;4982318;28;20682;-66
2023/06/05 04:35:38;;;;;;;2.83;1.20;;;16.40;66.70;;;;;;4977956;28;20208;-66
2023/06/05 04:38:06;;;;;;;1.03;1.03;;;16.40;66.70;;;;;;4962002;28;20215;-67
2023/06/05 04:40:33;;;;;;;1.60;1.50;;;16.50;67.50;;;;;;4988208;28;20199;-68
2023/06/05 04:43:01;;;;;;;1.57;1.47;;;16.50;66.80;;;;;;4965852;28;20556;-67
2023/06/05 04:45:29;;;;;;;1.70;1.10;;;16.60;66.90;;;;;;4976375;28;20228;-66
2023/06/05 04:47:57;;;;;;;1.67;1.20;;;16.60;66.80;;;;;;4969787;28;20226;-67
2023/06/05 04:50:26;;;;;;;1.60;1.50;;;16.70;66.90;;;;;;4963008;28;20215;-67
2023/06/05 04:52:56;;;;;;;1.47;1.37;;;16.70;66.80;;;;;;4970414;28;20299;-67
2023/06/05 04:55:24;;;;;;;1.57;1.47;;;16.70;66.90;;;;;;4966171;28;20223;-67
2023/06/05 04:58:00;;;;;;;2.60;1.80;;;16.80;67.00;;;;;;4983622;28;20284;-68
2023/06/05 05:00:29;;;;;;;2.53;1.70;;;16.90;67.20;;;;;;4966801;28;20228;-66
2023/06/05 05:02:56;;;;;;;3.93;1.80;;;17.00;67.30;;;;;;4976908;28;20235;-67
2023/06/05 05:05:24;;;;;;;2.20;1.57;;;17.00;67.40;;;;;;4969415;28;20650;-67
2023/06/05 05:07:53;;;;;;;2.40;1.43;;;17.10;67.70;;;;;;4977828;28;20462;-66
2023/06/05 05:10:22;;;;;;;4.20;1.60;;;17.10;67.70;;;;;;4971762;28;20650;-67
2023/06/05 05:12:49;;;;;;;1.90;1.40;;;17.10;67.90;;;;;;4968171;28;20215;-66
2023/06/05 05:15:17;;;;;;;3.47;1.40;;;17.20;68.10;;;;;;4974286;28;20657;-66
2023/06/05 05:17:45;;;;;;;1.37;1.27;;;17.20;68.20;;;;;;4988062;28;20262;-66
2023/06/05 05:20:13;;;;;;;3.37;1.30;;;17.20;68.40;;;;;;4971140;28;20239;-67
2023/06/05 05:22:41;;;;;;;2.20;1.50;;;17.30;68.80;;;;;;4979060;28;20323;-67
2023/06/05 05:25:08;;;;;;;1.40;1.30;;;17.30;68.60;;;;;;4977590;28;20208;-66
2023/06/05 05:27:35;;;;;;;1.63;1.20;;;17.40;68.60;;;;;;4978144;28;20371;-66
2023/06/05 05:30:03;;;;;;;1.27;1.17;;;17.40;68.40;;;;;;4990680;28;20197;-66
2023/06/05 05:32:30;;;;;;;1.30;1.20;;;17.30;68.20;;;;;;4983391;28;20224;-65
2023/06/05 05:34:59;;;;;;;1.33;0.90;;;17.30;68.00;;;;;;4990118;28;20290;-66
2023/06/05 05:37:26;;;;;;;1.90;1.20;;;17.40;68.00;;;;;;4976515;28;20219;-65
2023/06/05 05:39:54;;;;;;;1.20;1.10;;;17.40;67.90;;;;;;4990786;28;20296;-65
2023/06/05 05:42:21;;;;;;;0.93;0.80;;;17.50;67.90;;;;;;4976005;28;20224;-66
2023/06/05 05:44:48;;;;;;;1.60;1.00;;;17.50;67.80;;;;;;4989753;28;20193;-67
2023/06/05 05:47:15;;;;;;;0.90;0.90;;;17.60;67.90;;;;;;4976561;28;20279;-67
2023/06/05 05:49:42;;;;;;;1.07;1.00;;;17.60;67.90;;;;;;4987415;28;20207;-65
2023/06/05 05:52:11;;;;;;;7.33;1.27;;;17.60;67.70;;;;;;4984703;28;20748;-67
2023/06/05 05:54:38;;;;;;;1.25;1.13;;;17.70;67.80;;;;;;4990760;28;20192;-66
2023/06/05 05:57:07;;;;;;;1.90;1.20;;;17.70;67.70;;;;;;4984319;28;20218;-66
2023/06/05 05:59:34;;;;;;;1.70;1.40;;;17.80;67.60;;;;;;4989014;28;20219;-66
2023/06/05 06:02:01;;;;;;;1.70;1.45;;;17.80;67.60;;;;;;4987824;28;20201;-67
2023/06/05 06:04:29;;;;;;;1.80;1.60;;;17.80;67.50;;;;;;4987052;28;20272;-67
2023/06/05 06:06:56;;;;;;;1.40;1.30;;;17.90;67.60;;;;;;4986563;28;20608;-66
2023/06/05 06:09:24;;;;;;;1.00;1.00;;;17.90;67.50;;;;;;4982637;28;20295;-66
2023/06/05 06:11:55;;;;;;;0.98;0.98;;;18.00;67.60;;;;;;4990592;28;20192;-67
2023/06/05 06:14:22;;;;;;;2.27;1.10;;;18.00;67.70;;;;;;4989171;28;20197;-65
2023/06/05 06:16:49;;;;;;;1.10;1.10;;;18.00;67.70;;;;;;4989921;28;20194;-65
2023/06/05 06:19:17;;;;;;;2.10;1.15;;;18.00;67.80;;;;;;4979897;28;20627;-66
2023/06/05 06:21:44;;;;;;;1.27;1.17;;;18.10;67.90;;;;;;4987652;28;20213;-66
2023/06/05 06:24:11;;;;;;;1.73;1.63;;;18.10;68.00;;;;;;4984593;28;20202;-65
2023/06/05 06:26:40;;;;;;;4.87;2.20;;;18.10;68.10;;;;;;4990595;28;20664;-67
2023/06/05 06:29:08;;;;;;;1.83;1.65;;;18.20;68.40;;;;;;4971426;28;20214;-65
2023/06/05 06:31:36;;;;;;;1.67;1.57;;;18.20;68.40;;;;;;4987249;28;20203;-65
2023/06/05 06:34:03;;;;;;;1.83;1.37;;;18.30;68.40;;;;;;4987682;28;20196;-65
2023/06/05 06:36:30;;;;;;;1.35;1.27;;;18.30;68.30;;;;;;4988497;28;20737;-66
2023/06/05 06:38:57;;;;;;;1.02;1.02;;;18.30;68.30;;;;;;4985879;28;20288;-65
2023/06/05 06:41:25;;;;;;;1.40;1.30;;;18.30;68.40;;;;;;4989505;28;20832;-66
2023/06/05 06:43:54;;;;;;;1.50;1.40;;;18.40;69.30;;;;;;4967016;28;20654;-67
2023/06/05 06:46:21;;;;;;;2.03;1.80;;;18.40;69.00;;;;;;4989509;28;20262;-66
2023/06/05 06:48:48;;;;;;;1.05;1.00;;;18.50;69.00;;;;;;4985208;28;20270;-66
2023/06/05 06:51:15;;;;;;;1.30;1.00;;;18.60;69.10;;;;;;4989319;28;20202;-67
2023/06/05 06:53:42;;;;;;;0.95;0.95;;;18.60;69.10;;;;;;4989901;28;20599;-66
2023/06/05 06:56:10;;;;;;;1.58;1.15;;;18.60;69.50;;;;;;4989589;28;20203;-66
2023/06/05 06:58:37;;;;;;;1.02;1.02;;;18.70;70.10;;;;;;4971660;28;20270;-66
2023/06/05 07:01:06;;;;;;;1.35;1.00;;;18.70;70.50;;;;;;4989243;28;20203;-66
2023/06/05 07:03:33;;;;;;;1.03;1.03;;;18.80;70.70;;;;;;4988019;28;20236;-66
2023/06/05 07:06:00;;;;;;;1.50;1.40;;;18.80;70.70;;;;;;4989086;28;20250;-66
2023/06/05 07:08:27;;;;;;;1.50;1.40;;;18.90;71.30;;;;;;4968958;28;20734;-65
2023/06/05 07:10:55;;;;;;;1.60;1.50;;;18.90;71.20;;;;;;4989753;28;20557;-66
2023/06/05 07:13:22;;;;;;;1.33;1.17;;;18.90;71.20;;;;;;4989435;28;20195;-66
2023/06/05 07:15:50;;;;;;;2.03;1.58;;;19.00;71.30;;;;;;4981777;28;20196;-65
2023/06/05 07:18:20;;;;;;;2.45;1.83;;;19.00;71.40;;;;;;4986843;28;20232;-66
2023/06/05 07:20:47;;;;;;;1.80;1.70;;;19.10;72.00;;;;;;4980914;28;20669;-67
2023/06/05 07:23:17;;;;;;;1.50;1.40;;;19.10;72.10;;;;;;4990406;28;20309;-67
2023/06/05 07:25:44;;;;;;;2.05;1.50;;;19.10;71.80;;;;;;4986407;28;20203;-67
2023/06/05 07:28:12;;;;;;;1.13;1.02;;;19.20;71.70;;;;;;4989251;28;20362;-67
2023/06/05 07:30:43;;;;;;;2.30;1.15;;;19.30;71.50;;;;;;4986519;28;20204;-65
2023/06/05 07:33:10;;;;;;;1.20;1.10;;;19.30;71.40;;;;;;4975605;28;20253;-67
2023/06/05 07:35:39;;;;;;;1.20;1.20;;;19.40;71.30;;;;;;4985083;28;20286;-68
2023/06/05 07:38:06;;;;;;;1.63;1.27;;;18.90;70.40;;;;;;4968750;28;20212;-67
2023/06/05 07:40:33;;;;;;;1.05;1.05;;;19.50;70.70;;;;;;4983469;28;20199;-66
2023/06/05 07:43:00;;;;;;;0.88;0.88;;;19.60;70.60;;;;;;4987335;28;20207;-65
2023/06/05 07:45:29;;;;;;;1.20;1.10;;;19.70;70.50;;;;;;4987433;28;20215;-66
2023/06/05 07:47:56;;;;;;;1.05;1.05;;;19.80;70.20;;;;;;4987300;28;20195;-67
2023/06/05 07:50:23;;;;;;;1.48;1.38;;;19.80;69.70;;;;;;4987255;28;20226;-67
2023/06/05 07:52:51;;;;;;;2.17;1.70;;;19.90;68.70;;;;;;4987025;28;20215;-66
2023/06/05 07:55:19;;;;;;;1.20;1.10;;;19.90;67.80;;;;;;4977597;28;20196;-66
2023/06/05 07:57:46;;;;;;;1.60;1.50;;;20.00;67.40;;;;;;4981599;28;20213;-66
2023/06/05 08:00:14;;;;;;;1.98;1.42;;;20.00;66.70;;;;;;4976907;28;20196;-65
2023/06/05 08:02:41;;;;;;;1.30;1.20;;;20.10;66.80;;;;;;4988582;28;20228;-65
2023/06/05 08:05:09;;;;;;;1.00;1.00;;;20.10;67.10;;;;;;4987655;28;20207;-65
2023/06/05 08:07:37;;;;;;;1.25;1.25;;;20.20;67.50;;;;;;4987766;28;20196;-66
2023/06/05 08:10:07;;;;;;;0.95;0.95;;;20.20;67.70;;;;;;4970800;28;20286;-66
2023/06/05 08:12:34;;;;;;;0.98;0.90;;;20.30;67.90;;;;;;4984826;28;20200;-66
2023/06/05 08:15:01;;;;;;;1.02;1.00;;;20.40;68.20;;;;;;4976641;28;20219;-65
2023/06/05 08:17:29;;;;;;;2.45;1.60;;;20.40;68.70;;;;;;4982509;28;20196;-66
2023/06/05 08:19:58;;;;;;;1.00;1.00;;;20.50;69.50;;;;;;4977353;28;20209;-66
2023/06/05 08:22:25;;;;;;;1.20;1.10;;;20.60;69.50;;;;;;4982810;28;20279;-67
2023/06/05 08:24:54;;;;;;;1.10;1.10;;;20.60;69.40;;;;;;4987057;28;20195;-66
2023/06/05 08:27:22;;;;;;;3.05;1.75;;;20.70;69.90;;;;;;4981659;28;20196;-67
2023/06/05 08:29:51;;;;;;;1.10;1.10;;;20.70;70.00;;;;;;4980475;28;20203;-66
2023/06/05 08:32:20;;;;;;;1.02;1.00;;;20.80;69.90;;;;;;4985649;28;20234;-67
2023/06/05 08:34:47;;;;;;;0.80;0.80;;;20.80;69.80;;;;;;4985657;28;20211;-66
2023/06/05 08:37:14;;;;;;;0.90;0.90;;;20.90;70.00;;;;;;4985679;28;20235;-66
2023/06/05 08:39:41;;;;;;;0.88;0.88;;;20.90;69.90;;;;;;4986235;28;20867;-66
2023/06/05 08:42:12;;;;;;;1.05;0.90;;;21.00;69.80;;;;;;4968687;28;20215;-66
2023/06/05 08:44:41;;;;;;;1.40;0.80;;;21.10;69.70;;;;;;4984124;28;20211;-66
2023/06/05 08:47:11;;;;;;;1.33;0.85;;;21.10;69.30;;;;;;4985369;28;20195;-66
2023/06/05 08:49:41;;;;;;;1.10;1.05;;;21.20;68.90;;;;;;4966680;28;20208;-66
2023/06/05 08:52:09;;;;;;;0.90;0.90;;;21.20;67.70;;;;;;4982986;28;20211;-66
2023/06/05 08:54:38;;;;;;;0.80;0.80;;;21.30;67.60;;;;;;4985723;28;20199;-66
2023/06/05 08:57:06;;;;;;;0.88;0.88;;;21.30;67.30;;;;;;4987917;28;20649;-65
2023/06/05 08:59:34;;;;;;;1.35;1.00;;;21.40;66.90;;;;;;4982564;28;20635;-64
2023/06/05 09:02:04;;;;;;;1.10;1.00;;;21.50;65.40;;;;;;4986974;28;20208;-67
2023/06/05 09:04:31;;;;;;;1.38;1.05;;;21.50;63.80;;;;;;4985813;28;20559;-68
2023/06/05 09:06:58;;;;;;;2.55;0.98;;;21.50;63.20;;;;;;4987472;28;20223;-66
2023/06/05 09:09:26;;;;;;;0.80;0.80;;;21.50;63.20;;;;;;4976500;28;20211;-66
2023/06/05 09:12:03;;;;;;;0.73;0.73;;;21.60;63.40;;;;;;4986886;28;20219;-66
2023/06/05 09:14:32;;;;;;;0.90;0.90;;;21.60;63.40;;;;;;4981366;28;20221;-66
2023/06/05 09:17:01;;;;;;;0.80;0.80;;;21.70;63.10;;;;;;4982997;28;20242;-66
2023/06/05 09:19:39;;;;;;;0.80;0.80;;;21.70;63.00;;;;;;4956306;28;20299;-67
2023/06/05 09:22:08;;;;;;;0.77;0.77;;;21.80;62.60;;;;;;4974787;28;20287;-66
2023/06/05 09:24:36;;;;;;;0.70;0.70;;;21.90;62.80;;;;;;4985191;28;20223;-66
2023/06/05 09:27:05;;;;;;;1.30;1.00;;;21.90;62.30;;;;;;4969771;28;20796;-66
2023/06/05 09:29:34;;;;;;;0.60;0.60;;;22.00;62.40;;;;;;4973705;28;20303;-66
2023/06/05 09:32:05;;;;;;;0.60;0.60;;;22.00;62.30;;;;;;4978949;28;20333;-67
2023/06/05 09:34:34;;;;;;;0.68;0.68;;;22.10;62.30;;;;;;4980932;28;20294;-67
2023/06/05 09:37:03;;;;;;;1.38;1.30;;;22.10;62.10;;;;;;4987794;28;20203;-67
2023/06/05 09:39:31;;;;;;;1.60;1.50;;;22.20;60.20;;;;;;4980601;28;20216;-68
2023/06/05 09:42:00;;;;;;;1.40;1.20;;;22.20;59.70;;;;;;4982130;28;20230;-66
2023/06/05 09:44:28;;;;;;;1.40;1.27;;;22.20;59.70;;;;;;4984472;28;20256;-66
2023/06/05 09:46:57;;;;;;;1.65;1.17;;;22.20;59.30;;;;;;4988804;28;20239;-66
2023/06/05 09:49:27;;;;;;;1.52;1.13;;;22.20;58.80;;;;;;4988344;28;20196;-66
2023/06/05 09:51:55;;;;;;;2.53;1.30;;;22.30;58.40;;;;;;4986456;28;20219;-67
2023/06/05 09:54:27;;;;;;;1.58;1.48;;;22.30;58.20;;;;;;4983918;28;20665;-65
2023/06/05 09:56:58;;;;;;;1.60;1.08;;;22.40;58.00;;;;;;4977118;28;20335;-65
2023/06/05 09:59:29;;;;;;;1.10;1.10;;;22.40;57.60;;;;;;4983047;28;20295;-67
2023/06/05 10:02:01;;;;;;;0.77;0.77;;;22.40;57.30;;;;;;4989140;28;20279;-65
2023/06/05 10:04:30;;;;;;;1.20;1.10;;;22.40;57.60;;;;;;4989416;28;21051;-66
2023/06/05 10:07:01;;;;;;;1.30;1.20;;;22.50;57.50;;;;;;4989991;28;20562;-66
2023/06/05 10:09:31;;;;;;;1.30;1.20;;;22.50;56.40;;;;;;4979994;28;20612;-66
2023/06/05 10:12:00;;;;;;;1.58;1.45;;;22.50;56.00;;;;;;4990618;28;20638;-65
2023/06/05 10:14:27;;;;;;;1.70;1.60;;;22.60;55.90;;;;;;4982389;28;20215;-66
2023/06/05 10:16:56;;;;;;;2.22;1.42;;;22.60;55.70;;;;;;4983715;28;20283;-66
2023/06/05 10:19:24;;;;;;;1.42;1.33;;;22.70;55.50;;;;;;4988468;28;20714;-66
2023/06/05 10:21:52;;;;;;;1.23;1.20;;;22.70;55.60;;;;;;4984195;28;20218;-65
2023/06/05 10:24:23;;;;;;;1.35;1.25;;;22.70;55.30;;;;;;4989340;28;20211;-66
2023/06/05 10:27:32;;;;;;;2.75;1.45;;;22.70;55.30;;;;;;4988054;28;20196;-65
2023/06/05 10:30:30;;;;;;;1.40;1.30;;;22.80;55.40;;;;;;4981993;28;20223;-66
2023/06/05 10:33:12;;;;;;;2.33;1.80;;;22.60;55.30;;;;;;4985485;28;20227;-65
2023/06/05 10:35:52;;;;;;;1.77;1.50;;;22.90;55.40;;;;;;4982743;28;20991;-66
2023/06/05 10:38:22;;;;;;;1.95;1.67;;;23.00;55.70;;;;;;4979341;28;20192;-66
2023/06/05 10:40:53;;;;;;;1.77;1.40;;;23.10;55.60;;;;;;4986142;28;20705;-66
2023/06/05 10:43:30;;;;;;;1.13;1.00;;;23.10;55.40;;;;;;4978376;28;20885;-66
2023/06/05 10:45:59;;;;;;;1.55;1.15;;;23.20;55.20;;;;;;4986556;28;20192;-66
2023/06/05 10:49:04;;;;;;;2.33;1.52;;;23.30;55.30;;;;;;4984436;28;20299;-65
2023/06/05 10:51:39;;;;;;;2.10;1.30;;;23.30;54.30;;;;;;4980765;28;20192;-66
2023/06/05 10:54:07;;;;;;;1.40;1.30;;;23.40;54.00;;;;;;4987890;28;20199;-66
2023/06/05 10:57:07;;;;;;;3.35;1.30;;;23.40;53.60;;;;;;4989168;28;20196;-66
2023/06/05 10:59:37;;;;;;;1.42;1.33;;;23.40;54.00;;;;;;4911319;29;20380;-66
2023/06/05 11:02:25;;;;;;;1.30;1.20;;;23.50;53.10;;;;;;4892421;29;20249;-66
2023/06/05 11:05:10;;;;;;;1.77;1.20;;;23.40;53.20;;;;;;4944123;28;20315;-67
2023/06/05 11:07:39;;;;;;;2.25;1.10;;;23.50;52.70;;;;;;4963764;28;20201;-67
2023/06/05 11:10:20;;;;;;;2.33;1.50;;;23.50;51.90;;;;;;4968468;28;20193;-66
2023/06/05 11:13:01;;;;;;;3.20;1.70;;;23.50;51.80;;;;;;4969440;28;20271;-67
2023/06/05 11:15:46;;;;;;;1.60;1.42;;;23.60;51.70;;;;;;4969301;28;20201;-66
2023/06/05 11:18:35;;;;;;;1.85;1.33;;;23.60;51.80;;;;;;4973295;28;20201;-67
2023/06/05 11:21:03;;;;;;;1.50;1.40;;;23.60;51.60;;;;;;4965033;28;20192;-67
2023/06/05 11:23:30;;;;;;;0.88;0.88;;;23.60;51.60;;;;;;4966301;28;20228;-65
2023/06/05 11:26:19;;;;;;;1.25;1.15;;;23.70;51.80;;;;;;4968771;28;20279;-65
2023/06/05 11:28:46;;;;;;;1.38;1.27;;;23.80;51.60;;;;;;4964206;28;20206;-66
2023/06/05 11:31:31;;;;;;;1.27;1.17;;;23.80;50.90;;;;;;4955486;28;20216;-66
2023/06/05 11:33:58;;;;;;;1.15;1.15;;;23.90;50.80;;;;;;4958691;28;20817;-66
2023/06/05 11:36:26;;;;;;;1.40;1.30;;;23.80;50.80;;;;;;4966343;28;20196;-66
2023/06/05 11:38:57;;;;;;;1.45;1.17;;;23.90;50.70;;;;;;4968916;28;20228;-66
2023/06/05 11:41:25;;;;;;;1.42;1.33;;;23.90;50.60;;;;;;4969149;28;20722;-66
2023/06/05 11:43:53;;;;;;;1.80;1.70;;;24.00;50.80;;;;;;4974364;28;20278;-66
2023/06/05 11:46:36;;;;;;;2.40;1.58;;;24.00;50.40;;;;;;4964721;28;20574;-65
2023/06/05 11:49:03;;;;;;;1.30;1.20;;;24.00;50.70;;;;;;4963155;28;20193;-67
2023/06/05 11:51:36;;;;;;;1.40;1.30;;;24.10;49.90;;;;;;4965574;28;20188;-67
2023/06/05 11:54:05;;;;;;;1.65;1.20;;;24.20;50.10;;;;;;4955719;28;20200;-65
2023/06/05 11:56:33;;;;;;;2.65;1.17;;;24.20;49.50;;;;;;4968315;28;20193;-66
2023/06/05 11:59:00;;;;;;;1.15;1.05;;;24.20;49.30;;;;;;4965455;28;20271;-66
2023/06/05 12:01:32;;;;;;;1.38;1.27;;;24.20;49.30;;;;;;4955260;28;20660;-67
2023/06/05 12:04:06;;;;;;;4.03;1.52;;;24.20;49.00;;;;;;4979223;28;20228;-66
2023/06/05 12:06:34;;;;;;;1.10;1.00;;;24.20;48.80;;;;;;4973347;28;20221;-66
2023/06/05 12:09:11;;;;;;;1.50;1.17;;;24.20;48.70;;;;;;4971470;28;20184;-66
2023/06/05 12:11:38;;;;;;;2.13;1.25;;;24.30;48.40;;;;;;4982089;28;20187;-66
2023/06/05 12:14:06;;;;;;;1.65;1.00;;;24.30;48.40;;;;;;4987037;28;20792;-66
2023/06/05 12:16:36;;;;;;;1.30;1.20;;;24.30;48.80;;;;;;4986587;28;20533;-65
2023/06/05 12:19:46;;;;;;;1.20;1.05;;;24.40;48.20;;;;;;4975324;28;20296;-66
2023/06/05 12:22:19;;;;;;;1.13;1.02;;;24.40;47.90;;;;;;4972379;28;20938;-66
2023/06/05 12:24:47;;;;;;;1.90;1.23;;;24.40;47.30;;;;;;4975562;28;20196;-66
2023/06/05 12:27:15;;;;;;;2.33;1.38;;;24.40;47.00;;;;;;4977962;28;20262;-66
2023/06/05 12:29:55;;;;;;;1.30;1.25;;;24.40;46.50;;;;;;4981325;28;20188;-67
2023/06/05 12:32:24;;;;;;;3.15;1.65;;;24.50;46.20;;;;;;4987683;28;20206;-66
2023/06/05 12:34:55;;;;;;;1.00;1.00;;;24.40;46.00;;;;;;4982079;28;20645;-67
2023/06/05 12:37:31;;;;;;;1.10;1.10;;;24.40;45.90;;;;;;4988247;28;20641;-67
2023/06/05 12:39:59;;;;;;;1.10;1.10;;;24.40;45.90;;;;;;4987746;28;20748;-67
2023/06/05 12:42:27;;;;;;;1.67;1.40;;;24.40;45.70;;;;;;4972997;28;20219;-66
2023/06/05 12:44:55;;;;;;;1.30;1.20;;;24.40;45.30;;;;;;4987000;28;20276;-66
2023/06/05 12:47:23;;;;;;;1.67;1.20;;;24.40;44.90;;;;;;4987460;28;20287;-66
2023/06/05 12:49:51;;;;;;;1.20;1.20;;;24.40;44.80;;;;;;4986434;28;20246;-65
2023/06/05 12:52:18;;;;;;;1.40;1.30;;;24.40;44.90;;;;;;4964362;28;20641;-67
2023/06/05 12:54:45;;;;;;;1.48;1.38;;;24.40;44.90;;;;;;4950933;28;20219;-66
2023/06/05 12:57:12;;;;;;;1.00;1.00;;;24.40;44.90;;;;;;4986424;28;20786;-67
2023/06/05 12:59:39;;;;;;;1.77;1.67;;;24.40;44.70;;;;;;4980624;28;20209;-66
2023/06/05 13:02:07;;;;;;;2.13;1.92;;;24.50;44.70;;;;;;4983542;28;20231;-67
2023/06/05 13:04:35;;;;;;;1.80;1.70;;;24.50;44.30;;;;;;4977465;28;20204;-66